Time;durP1;ratioP1;P1;durP2;ratioP2;P2;SDS_P1;SDS_P2;PMS_P1;PMS_P2;Temp;Humidity;BMP_temperature;BMP_pressure;BME280_temperature;BME280_humidity;BME280_pressure;Samples;Min_cycle;Max_cycle;Signal;HPM_P1;HPM_P2
2023/04/27 00:00:09;;;;;;;13.63;7.90;;;5.90;99.90;;;;;;5116610;28;20173;-70
2023/04/27 00:02:39;;;;;;;10.87;7.67;;;5.70;99.90;;;;;;5116207;27;20159;-70
2023/04/27 00:05:05;;;;;;;11.47;7.97;;;5.60;99.90;;;;;;5114459;28;20184;-70
2023/04/27 00:07:31;;;;;;;10.07;7.80;;;5.40;99.90;;;;;;5114666;28;20399;-70
2023/04/27 00:09:57;;;;;;;10.20;7.50;;;5.30;99.90;;;;;;5114816;28;20173;-70
2023/04/27 00:12:22;;;;;;;9.70;7.90;;;5.20;99.90;;;;;;5115858;28;20221;-70
2023/04/27 00:14:48;;;;;;;12.03;8.13;;;5.30;99.90;;;;;;5115892;28;20185;-70
2023/04/27 00:17:14;;;;;;;10.57;8.70;;;5.30;99.90;;;;;;5114545;28;20200;-70
2023/04/27 00:19:40;;;;;;;11.93;7.43;;;5.30;99.90;;;;;;5115818;28;20179;-70
2023/04/27 00:22:07;;;;;;;9.77;7.13;;;5.20;99.90;;;;;;5116042;28;20164;-70
2023/04/27 00:24:33;;;;;;;10.10;7.90;;;5.20;99.90;;;;;;5114565;28;20177;-70
2023/04/27 00:26:59;;;;;;;10.90;7.97;;;5.10;99.90;;;;;;5115787;27;20209;-70
2023/04/27 00:29:25;;;;;;;8.40;7.27;;;5.00;99.90;;;;;;5115693;28;20280;-70
2023/04/27 00:31:50;;;;;;;11.57;7.87;;;4.90;99.90;;;;;;5114489;28;20168;-68
2023/04/27 00:34:16;;;;;;;12.07;8.00;;;4.80;99.90;;;;;;5115552;28;20168;-69
2023/04/27 00:36:42;;;;;;;11.17;8.20;;;4.70;99.90;;;;;;5115429;28;20241;-68
2023/04/27 00:39:08;;;;;;;11.43;8.03;;;4.60;99.90;;;;;;5115526;28;20251;-68
2023/04/27 00:41:37;;;;;;;10.77;8.20;;;4.50;99.90;;;;;;5115625;28;20246;-68
2023/04/27 00:44:03;;;;;;;9.43;8.07;;;4.60;99.90;;;;;;5113879;28;20199;-68
2023/04/27 00:46:29;;;;;;;10.57;8.03;;;4.60;99.90;;;;;;5113836;28;20684;-68
2023/04/27 00:48:55;;;;;;;9.87;7.80;;;4.60;99.90;;;;;;5115464;28;20252;-68
2023/04/27 00:51:26;;;;;;;9.90;7.80;;;4.50;99.90;;;;;;5114059;28;20233;-68
2023/04/27 00:53:52;;;;;;;9.73;7.50;;;4.50;99.90;;;;;;5115892;28;20602;-69
2023/04/27 00:56:19;;;;;;;11.87;7.80;;;4.50;99.90;;;;;;5113692;28;20695;-68
2023/04/27 00:58:44;;;;;;;8.93;7.63;;;4.50;99.90;;;;;;5114878;28;20663;-68
2023/04/27 01:01:11;;;;;;;12.17;8.37;;;4.50;99.90;;;;;;5113552;28;20192;-68
2023/04/27 01:03:37;;;;;;;9.60;7.83;;;4.60;99.90;;;;;;5115483;28;20531;-68
2023/04/27 01:06:03;;;;;;;11.10;8.17;;;4.60;99.90;;;;;;5115016;28;20208;-69
2023/04/27 01:08:29;;;;;;;9.00;7.97;;;4.60;99.90;;;;;;5115376;28;20640;-68
2023/04/27 01:10:54;;;;;;;10.73;8.67;;;4.60;99.90;;;;;;5115020;28;20226;-68
2023/04/27 01:13:21;;;;;;;12.77;9.27;;;4.50;99.90;;;;;;5113387;28;20523;-68
2023/04/27 01:15:47;;;;;;;13.87;10.33;;;4.40;99.90;;;;;;5116645;28;20168;-68
2023/04/27 01:18:13;;;;;;;12.70;9.30;;;4.30;99.90;;;;;;5115784;28;20199;-68
2023/04/27 01:20:39;;;;;;;13.27;9.23;;;4.20;99.90;;;;;;5118940;28;20225;-68
2023/04/27 01:23:05;;;;;;;12.57;9.77;;;4.20;99.90;;;;;;5117163;28;20207;-69
2023/04/27 01:25:30;;;;;;;15.63;9.63;;;4.20;99.90;;;;;;5113857;28;20653;-68
2023/04/27 01:27:56;;;;;;;9.83;8.83;;;4.10;99.90;;;;;;5114651;27;20193;-68
2023/04/27 01:30:22;;;;;;;13.63;9.03;;;4.10;99.90;;;;;;5114904;28;20173;-68
2023/04/27 01:32:48;;;;;;;15.50;9.20;;;4.10;99.90;;;;;;5115067;28;20179;-68
2023/04/27 01:35:14;;;;;;;10.43;9.27;;;4.10;99.90;;;;;;5114377;28;20173;-68
2023/04/27 01:37:40;;;;;;;16.87;9.47;;;4.10;99.90;;;;;;5114502;28;20192;-68
2023/04/27 01:40:07;;;;;;;13.57;9.80;;;4.10;99.90;;;;;;5114294;28;20249;-68
2023/04/27 01:42:33;;;;;;;12.57;8.47;;;4.00;99.90;;;;;;5115697;28;20177;-69
2023/04/27 01:44:59;;;;;;;11.33;9.00;;;4.00;99.90;;;;;;5115544;28;20207;-68
2023/04/27 01:47:26;;;;;;;13.77;10.03;;;3.90;99.90;;;;;;5114024;28;20200;-68
2023/04/27 01:49:52;;;;;;;11.80;9.40;;;3.70;99.90;;;;;;5114092;28;20171;-68
2023/04/27 01:52:17;;;;;;;12.40;9.17;;;3.70;99.90;;;;;;5112883;28;20181;-67
2023/04/27 01:54:43;;;;;;;12.27;10.53;;;3.70;99.90;;;;;;5114028;28;20176;-68
2023/04/27 01:57:09;;;;;;;11.97;9.37;;;3.60;99.90;;;;;;5114152;28;20687;-68
2023/04/27 01:59:35;;;;;;;13.33;9.97;;;3.70;99.90;;;;;;5114048;28;20708;-68
2023/04/27 02:02:00;;;;;;;15.40;9.83;;;3.60;99.90;;;;;;5112706;28;20563;-68
2023/04/27 02:04:26;;;;;;;12.60;9.57;;;3.60;99.90;;;;;;5117566;27;20675;-68
2023/04/27 02:06:52;;;;;;;13.43;10.07;;;3.60;99.90;;;;;;5133231;27;20294;-68
2023/04/27 02:09:18;;;;;;;11.63;9.40;;;3.60;99.90;;;;;;5133287;28;20172;-68
2023/04/27 02:11:43;;;;;;;14.93;10.03;;;3.50;99.90;;;;;;5134346;27;20172;-68
2023/04/27 02:14:09;;;;;;;12.60;10.27;;;3.50;99.90;;;;;;5134321;27;20159;-68
2023/04/27 02:16:35;;;;;;;13.10;9.70;;;3.50;99.90;;;;;;5134267;27;20191;-68
2023/04/27 02:19:02;;;;;;;11.53;9.50;;;3.20;99.90;;;;;;5133205;28;20259;-68
2023/04/27 02:21:28;;;;;;;14.70;9.40;;;3.10;99.90;;;;;;5134312;27;20179;-68
2023/04/27 02:23:54;;;;;;;12.03;9.37;;;3.00;99.90;;;;;;5134355;27;20160;-68
2023/04/27 02:26:21;;;;;;;14.13;9.23;;;2.80;99.90;;;;;;5134167;27;20252;-68
2023/04/27 02:28:47;;;;;;;10.53;9.20;;;2.80;99.90;;;;;;5135189;27;20174;-68
2023/04/27 02:31:13;;;;;;;14.43;9.53;;;2.70;99.90;;;;;;5138819;27;20496;-68
2023/04/27 02:33:42;;;;;;;12.93;9.60;;;2.80;99.90;;;;;;5137998;27;20564;-68
2023/04/27 02:36:08;;;;;;;14.17;9.73;;;2.90;99.90;;;;;;5120210;27;20192;-68
2023/04/27 02:38:34;;;;;;;13.50;9.70;;;3.00;99.90;;;;;;5116365;28;20176;-68
2023/04/27 02:40:59;;;;;;;12.97;9.97;;;3.10;99.90;;;;;;5118174;28;20176;-68
2023/04/27 02:43:25;;;;;;;12.00;9.30;;;3.10;99.90;;;;;;5117514;28;20180;-68
2023/04/27 02:45:51;;;;;;;12.33;9.63;;;3.10;99.90;;;;;;5118335;28;20192;-70
2023/04/27 02:48:17;;;;;;;13.17;10.97;;;3.10;99.90;;;;;;5118065;28;20211;-70
2023/04/27 02:50:43;;;;;;;11.80;9.63;;;3.10;99.90;;;;;;5118860;28;20168;-71
2023/04/27 02:53:10;;;;;;;12.27;8.93;;;3.10;99.90;;;;;;5116628;28;20640;-71
2023/04/27 02:55:36;;;;;;;11.77;9.47;;;3.00;99.90;;;;;;5116277;28;20188;-71
2023/04/27 02:58:02;;;;;;;10.67;8.90;;;2.80;99.90;;;;;;5115955;28;20196;-71
2023/04/27 03:00:28;;;;;;;11.07;8.93;;;2.80;99.90;;;;;;5116010;28;20192;-71
2023/04/27 03:02:55;;;;;;;12.87;9.77;;;2.70;99.90;;;;;;5117577;28;20168;-71
2023/04/27 03:05:21;;;;;;;15.97;9.40;;;2.60;99.90;;;;;;5117191;28;20183;-71
2023/04/27 03:07:47;;;;;;;10.67;9.40;;;2.50;99.90;;;;;;5117594;28;20216;-71
2023/04/27 03:10:12;;;;;;;13.03;9.70;;;2.40;99.90;;;;;;5117289;28;20667;-71
2023/04/27 03:12:38;;;;;;;11.93;9.37;;;2.50;99.90;;;;;;5117153;28;20169;-70
2023/04/27 03:15:04;;;;;;;13.50;9.07;;;2.50;99.90;;;;;;5117073;28;20252;-71
2023/04/27 03:17:30;;;;;;;18.37;9.90;;;2.60;99.90;;;;;;5117539;28;20193;-71
2023/04/27 03:19:56;;;;;;;12.60;9.23;;;2.60;99.90;;;;;;5117081;28;20183;-71
2023/04/27 03:22:22;;;;;;;16.53;10.73;;;2.70;99.90;;;;;;5115823;28;20671;-71
2023/04/27 03:24:48;;;;;;;13.53;10.47;;;2.70;99.90;;;;;;5117340;28;20184;-71
2023/04/27 03:27:14;;;;;;;13.17;9.77;;;2.70;99.90;;;;;;5115566;28;20266;-71
2023/04/27 03:29:39;;;;;;;12.53;10.17;;;2.60;99.90;;;;;;5116907;28;20173;-70
2023/04/27 03:32:05;;;;;;;13.83;9.67;;;2.40;99.90;;;;;;5117194;27;20617;-71
2023/04/27 03:34:31;;;;;;;12.43;10.40;;;2.50;99.90;;;;;;5115430;28;20192;-71
2023/04/27 03:36:57;;;;;;;15.37;9.97;;;2.50;99.90;;;;;;5116748;28;20204;-71
2023/04/27 03:39:23;;;;;;;13.57;10.00;;;2.50;99.90;;;;;;5116745;28;20211;-71
2023/04/27 03:41:48;;;;;;;14.90;10.70;;;2.30;99.90;;;;;;5114788;28;20191;-71
2023/04/27 03:44:14;;;;;;;16.03;10.73;;;2.20;99.90;;;;;;5115188;28;20191;-70
2023/04/27 03:46:40;;;;;;;13.33;10.60;;;2.30;99.90;;;;;;5116594;28;20228;-71
2023/04/27 03:49:06;;;;;;;16.23;10.57;;;2.30;99.90;;;;;;5115794;28;20657;-70
2023/04/27 03:51:32;;;;;;;14.43;10.30;;;2.30;99.90;;;;;;5115245;28;20664;-70
2023/04/27 03:53:58;;;;;;;14.93;11.73;;;2.20;99.90;;;;;;5116379;28;20172;-71
2023/04/27 03:56:24;;;;;;;18.53;13.57;;;2.10;99.90;;;;;;5115233;28;20204;-71
2023/04/27 03:58:51;;;;;;;18.13;13.00;;;2.10;99.90;;;;;;5116587;28;20667;-71
2023/04/27 04:01:17;;;;;;;17.70;13.57;;;2.10;99.90;;;;;;5116414;28;20294;-71
2023/04/27 04:03:43;;;;;;;16.37;12.17;;;2.00;99.90;;;;;;5115155;28;20192;-70
2023/04/27 04:06:09;;;;;;;19.13;11.87;;;2.00;99.90;;;;;;5115017;28;20295;-70
2023/04/27 04:08:36;;;;;;;13.30;10.70;;;1.90;99.90;;;;;;5114865;28;20176;-68
2023/04/27 04:11:02;;;;;;;13.93;10.40;;;1.90;99.90;;;;;;5116078;28;20176;-69
2023/04/27 04:13:28;;;;;;;12.53;10.03;;;1.80;99.90;;;;;;5115929;28;20192;-69
2023/04/27 04:16:20;;;;;;;16.97;10.37;;;1.70;99.90;;;;;;5116050;28;20660;-69
2023/04/27 04:18:46;;;;;;;16.93;9.80;;;1.60;99.90;;;;;;5113776;28;20188;-69
2023/04/27 04:21:11;;;;;;;16.93;11.20;;;1.80;99.90;;;;;;5116303;28;20185;-68
2023/04/27 04:23:39;;;;;;;14.97;11.10;;;1.80;99.90;;;;;;5116005;28;20210;-68
2023/04/27 04:26:06;;;;;;;15.73;10.80;;;1.70;99.90;;;;;;5115758;28;20200;-69
2023/04/27 04:28:32;;;;;;;11.87;9.80;;;1.70;99.90;;;;;;5114435;28;20180;-69
2023/04/27 04:30:59;;;;;;;14.30;11.13;;;1.80;99.90;;;;;;5115779;28;20172;-69
2023/04/27 04:33:25;;;;;;;14.30;11.07;;;1.90;99.90;;;;;;5115548;28;20686;-69
2023/04/27 04:35:52;;;;;;;19.63;10.73;;;1.90;99.90;;;;;;5115536;28;20192;-68
2023/04/27 04:38:18;;;;;;;19.57;11.87;;;1.80;99.90;;;;;;5114137;28;20208;-69
2023/04/27 04:40:44;;;;;;;18.73;11.03;;;1.70;99.90;;;;;;5114345;28;20300;-69
2023/04/27 04:43:10;;;;;;;14.63;11.47;;;1.60;99.90;;;;;;5115336;28;20212;-69
2023/04/27 04:45:35;;;;;;;16.03;11.03;;;1.60;99.90;;;;;;5115649;28;20168;-68
2023/04/27 04:48:01;;;;;;;14.03;11.00;;;1.50;99.90;;;;;;5113972;28;20197;-68
2023/04/27 04:50:27;;;;;;;13.27;10.73;;;1.50;99.90;;;;;;5115555;28;20171;-69
2023/04/27 04:52:53;;;;;;;14.57;10.87;;;1.50;99.90;;;;;;5112911;28;20325;-69
2023/04/27 04:55:19;;;;;;;14.90;11.60;;;1.50;99.90;;;;;;5113874;28;20649;-68
2023/04/27 04:57:45;;;;;;;13.23;10.80;;;1.50;99.90;;;;;;5113512;28;20200;-69
2023/04/27 05:00:12;;;;;;;14.80;10.37;;;1.50;99.90;;;;;;5115189;28;20516;-69
2023/04/27 05:02:39;;;;;;;11.27;10.13;;;1.60;99.90;;;;;;5113668;28;20165;-69
2023/04/27 05:05:06;;;;;;;16.07;10.83;;;1.70;99.90;;;;;;5114953;28;20192;-69
2023/04/27 05:07:32;;;;;;;12.87;10.53;;;1.90;99.90;;;;;;5115016;28;20299;-68
2023/04/27 05:09:58;;;;;;;13.33;10.03;;;1.90;99.90;;;;;;5113610;28;20602;-69
2023/04/27 05:12:24;;;;;;;14.50;10.53;;;2.00;99.90;;;;;;5113944;28;20177;-69
2023/04/27 05:14:53;;;;;;;14.77;10.83;;;2.10;99.90;;;;;;5113379;28;20184;-69
2023/04/27 05:17:18;;;;;;;16.00;11.17;;;2.10;99.90;;;;;;5114760;28;20192;-69
2023/04/27 05:19:44;;;;;;;16.47;11.33;;;2.20;99.90;;;;;;5114660;28;20180;-68
2023/04/27 05:22:10;;;;;;;16.97;10.80;;;2.30;99.90;;;;;;5114754;28;20169;-68
2023/04/27 05:24:36;;;;;;;14.27;10.90;;;2.30;99.90;;;;;;5115083;27;20236;-69
2023/04/27 05:27:02;;;;;;;16.23;12.73;;;2.40;99.90;;;;;;5113242;28;20700;-69
2023/04/27 05:29:28;;;;;;;17.90;14.00;;;2.50;99.90;;;;;;5113190;28;20255;-69
2023/04/27 05:31:54;;;;;;;13.70;10.63;;;2.70;99.90;;;;;;5114564;28;20253;-69
2023/04/27 05:34:19;;;;;;;14.23;11.47;;;2.80;99.90;;;;;;5114513;28;20180;-69
2023/04/27 05:36:48;;;;;;;17.73;11.10;;;2.90;99.90;;;;;;5113219;28;20200;-69
2023/04/27 05:39:14;;;;;;;19.67;15.40;;;3.00;99.90;;;;;;5113136;28;20181;-69
2023/04/27 05:41:39;;;;;;;16.83;11.87;;;3.10;99.90;;;;;;5113136;28;20187;-70
2023/04/27 05:44:05;;;;;;;17.07;11.67;;;3.20;99.90;;;;;;5113172;28;20184;-69
2023/04/27 05:46:32;;;;;;;18.67;11.63;;;3.20;99.90;;;;;;5112901;28;20216;-69
2023/04/27 05:48:58;;;;;;;16.77;11.57;;;3.30;99.90;;;;;;5112964;28;20172;-69
2023/04/27 05:51:23;;;;;;;18.50;12.07;;;3.40;99.90;;;;;;5113015;28;20272;-68
2023/04/27 05:53:49;;;;;;;13.93;11.47;;;3.40;99.90;;;;;;5114293;28;20208;-68
2023/04/27 05:56:15;;;;;;;15.20;11.77;;;3.50;99.90;;;;;;5114022;28;20204;-68
2023/04/27 05:58:41;;;;;;;14.13;11.33;;;3.60;99.90;;;;;;5114322;28;20256;-68
2023/04/27 06:01:07;;;;;;;20.73;12.63;;;3.80;99.90;;;;;;5112667;28;20200;-68
2023/04/27 06:03:33;;;;;;;17.83;11.67;;;3.90;99.90;;;;;;5113563;28;20176;-69
2023/04/27 06:06:00;;;;;;;19.97;12.17;;;4.00;99.90;;;;;;5113758;28;20206;-68
2023/04/27 06:08:27;;;;;;;15.73;11.50;;;4.10;99.90;;;;;;5113931;28;20540;-69
2023/04/27 06:10:53;;;;;;;19.17;11.93;;;4.20;99.90;;;;;;5113842;28;20524;-68
2023/04/27 06:13:19;;;;;;;22.83;12.73;;;4.30;99.90;;;;;;5114010;28;20179;-69
2023/04/27 06:15:45;;;;;;;15.90;12.07;;;4.40;99.90;;;;;;5112576;28;20180;-69
2023/04/27 06:18:11;;;;;;;21.33;12.83;;;4.50;99.90;;;;;;5114018;28;20192;-68
2023/04/27 06:20:37;;;;;;;17.43;12.00;;;4.60;99.90;;;;;;5113796;28;20200;-68
2023/04/27 06:23:03;;;;;;;23.00;13.20;;;4.70;99.90;;;;;;5114324;28;20266;-68
2023/04/27 06:25:28;;;;;;;16.87;12.83;;;4.90;99.90;;;;;;5113656;28;20173;-69
2023/04/27 06:27:55;;;;;;;19.03;12.67;;;5.00;99.90;;;;;;5113684;28;20215;-69
2023/04/27 06:30:22;;;;;;;16.03;12.17;;;5.10;94.00;;;;;;5112368;28;20208;-69
2023/04/27 06:32:49;;;;;;;19.83;12.27;;;5.30;1.00;;;;;;5113622;28;20587;-69
2023/04/27 06:35:15;;;;;;;22.20;12.17;;;5.40;1.00;;;;;;5114195;28;20179;-71
2023/04/27 06:37:41;;;;;;;16.57;11.80;;;5.50;1.00;;;;;;5114409;28;20258;-71
2023/04/27 06:40:08;;;;;;;19.30;12.03;;;5.60;32.60;;;;;;5113936;28;20180;-71
2023/04/27 06:42:34;;;;;;;15.70;11.43;;;5.70;99.90;;;;;;5112683;28;20548;-71
2023/04/27 06:45:00;;;;;;;13.53;10.53;;;5.90;1.00;;;;;;5112082;28;20264;-71
2023/04/27 06:47:26;;;;;;;21.40;11.27;;;6.00;1.00;;;;;;5113441;28;20219;-71
2023/04/27 06:49:52;;;;;;;20.13;10.97;;;6.10;1.00;;;;;;5112396;28;20180;-71
2023/04/27 06:52:17;;;;;;;19.10;11.13;;;6.10;99.90;;;;;;5112335;28;20183;-72
2023/04/27 06:54:43;;;;;;;14.80;10.03;;;6.20;1.00;;;;;;5113605;28;20169;-71
2023/04/27 06:57:09;;;;;;;16.23;10.97;;;6.30;99.90;;;;;;5113595;28;20196;-72
2023/04/27 06:59:35;;;;;;;15.10;10.13;;;6.40;1.00;;;;;;5113476;28;20183;-71
2023/04/27 07:02:01;;;;;;;14.87;9.33;;;6.60;99.90;;;;;;5113592;28;20201;-71
2023/04/27 07:04:26;;;;;;;14.70;9.73;;;6.70;1.00;;;;;;5113550;28;20224;-71
2023/04/27 07:06:52;;;;;;;17.60;10.03;;;6.90;99.90;;;;;;5113383;28;20295;-71
2023/04/27 07:09:18;;;;;;;18.40;9.37;;;6.90;99.90;;;;;;5112313;28;20229;-71
2023/04/27 07:11:44;;;;;;;14.33;9.83;;;7.10;1.00;;;;;;5112534;28;20226;-70
2023/04/27 07:14:09;;;;;;;16.00;9.80;;;7.10;99.90;;;;;;5114561;28;20209;-70
2023/04/27 07:16:35;;;;;;;12.03;8.43;;;7.30;33.60;;;;;;5116418;28;20191;-70
2023/04/27 07:19:01;;;;;;;12.47;8.40;;;7.40;67.90;;;;;;5117679;28;20188;-70
2023/04/27 07:21:27;;;;;;;13.53;8.40;;;7.40;99.90;;;;;;5117808;27;20180;-70
2023/04/27 07:23:53;;;;;;;9.67;8.40;;;7.50;1.00;;;;;;5117310;28;20176;-70
2023/04/27 07:26:20;;;;;;;13.10;8.20;;;7.60;99.90;;;;;;5116966;28;20212;-70
2023/04/27 07:28:46;;;;;;;15.13;8.63;;;7.70;97.20;;;;;;5117051;28;20176;-68
2023/04/27 07:31:13;;;;;;;12.80;8.10;;;7.80;99.90;;;;;;5117279;28;20177;-68
2023/04/27 07:33:38;;;;;;;13.23;7.97;;;7.90;1.00;;;;;;5115373;28;20188;-68
2023/04/27 07:36:05;;;;;;;9.87;7.77;;;8.00;1.00;;;;;;5116692;27;20184;-67
2023/04/27 07:38:31;;;;;;;11.40;7.37;;;8.00;1.00;;;;;;5116939;28;20180;-68
2023/04/27 07:41:09;;;;;;;9.93;7.40;;;8.10;1.00;;;;;;5116897;28;20180;-67
2023/04/27 07:43:35;;;;;;;11.63;7.63;;;8.10;1.00;;;;;;5116542;28;20160;-67
2023/04/27 07:46:01;;;;;;;10.87;8.50;;;8.20;1.00;;;;;;5116533;28;20207;-68
2023/04/27 07:48:27;;;;;;;15.50;8.23;;;8.30;1.00;;;;;;5115139;28;20204;-68
2023/04/27 07:50:53;;;;;;;10.60;7.80;;;8.40;1.00;;;;;;5115176;28;20188;-68
2023/04/27 07:53:19;;;;;;;11.27;7.20;;;8.60;1.00;;;;;;5116290;28;20175;-68
2023/04/27 07:55:45;;;;;;;9.63;8.10;;;8.60;99.90;;;;;;5117200;28;20531;-68
2023/04/27 07:58:11;;;;;;;9.53;7.80;;;8.70;99.90;;;;;;5115999;28;20197;-68
2023/04/27 08:00:37;;;;;;;12.63;7.33;;;8.80;99.90;;;;;;5114886;28;20189;-68
2023/04/27 08:03:03;;;;;;;10.50;7.40;;;8.90;1.00;;;;;;5115039;28;20268;-68
2023/04/27 08:05:29;;;;;;;9.50;7.10;;;9.00;1.00;;;;;;5114775;28;20191;-68
2023/04/27 08:07:55;;;;;;;16.63;7.70;;;9.10;1.00;;;;;;5115831;28;20223;-68
2023/04/27 08:10:21;;;;;;;10.70;7.77;;;9.10;1.00;;;;;;5114636;28;20180;-68
2023/04/27 08:12:47;;;;;;;11.00;7.80;;;9.10;1.00;;;;;;5116441;28;20255;-68
2023/04/27 08:15:13;;;;;;;11.90;8.00;;;9.20;1.00;;;;;;5114571;28;20652;-68
2023/04/27 08:17:42;;;;;;;9.53;7.33;;;9.40;1.00;;;;;;5115770;28;20192;-68
2023/04/27 08:20:11;;;;;;;10.73;7.57;;;9.40;1.00;;;;;;5114601;28;20180;-67
2023/04/27 08:22:39;;;;;;;10.73;7.20;;;9.60;1.00;;;;;;5114604;28;20187;-67
2023/04/27 08:25:06;;;;;;;12.50;7.13;;;10.20;1.00;;;;;;5115627;28;20172;-68
2023/04/27 08:27:32;;;;;;;10.68;6.45;;;11.40;1.00;;;;;;5115396;28;20211;-68
2023/04/27 08:29:59;;;;;;;10.55;6.13;;;12.50;1.00;;;;;;5115549;28;20227;-68
2023/04/27 08:32:25;;;;;;;9.05;6.80;;;13.40;1.00;;;;;;5115851;28;20251;-68
2023/04/27 08:34:51;;;;;;;8.77;6.13;;;14.10;1.00;;;;;;5114275;28;20207;-68
2023/04/27 08:37:17;;;;;;;10.60;6.35;;;14.60;1.00;;;;;;5115439;28;20623;-68
2023/04/27 08:39:43;;;;;;;9.50;6.25;;;15.00;1.00;;;;;;5115412;28;20256;-68
2023/04/27 08:42:13;;;;;;;7.70;5.78;;;15.40;1.00;;;;;;5114022;28;20200;-68
2023/04/27 08:44:42;;;;;;;9.05;5.68;;;15.80;1.00;;;;;;5113923;28;20215;-68
2023/04/27 08:47:09;;;;;;;8.50;5.57;;;15.70;1.00;;;;;;5115137;28;20555;-68
2023/04/27 08:49:40;;;;;;;9.05;6.25;;;16.00;1.00;;;;;;5114073;27;20549;-68
2023/04/27 08:52:14;;;;;;;7.45;5.90;;;16.20;1.00;;;;;;5115472;28;20609;-68
2023/04/27 08:54:40;;;;;;;8.23;5.78;;;16.10;1.00;;;;;;5113765;28;20176;-68
2023/04/27 08:57:12;;;;;;;15.38;8.05;;;16.10;1.00;;;;;;5115005;28;20199;-68
2023/04/27 08:59:39;;;;;;;13.05;9.38;;;16.10;1.00;;;;;;5115005;28;20195;-68
2023/04/27 09:02:06;;;;;;;8.27;7.30;;;15.80;1.00;;;;;;5113544;28;20196;-68
2023/04/27 09:04:38;;;;;;;8.30;5.85;;;15.90;1.00;;;;;;5115326;28;20652;-68
2023/04/27 09:07:17;;;;;;;12.10;9.60;;;16.00;1.00;;;;;;5114691;28;20574;-68
2023/04/27 09:09:43;;;;;;;8.90;6.90;;;15.80;1.00;;;;;;5115243;28;20156;-69
2023/04/27 09:12:19;;;;;;;9.82;5.55;;;16.30;1.00;;;;;;5114707;28;20588;-68
2023/04/27 09:15:02;;;;;;;7.93;5.53;;;16.90;1.00;;;;;;5114597;28;20164;-68
2023/04/27 09:17:29;;;;;;;7.25;5.47;;;17.00;1.00;;;;;;5114696;28;20184;-69
2023/04/27 09:20:14;;;;;;;9.27;6.32;;;17.30;1.00;;;;;;5114959;28;20169;-69
2023/04/27 09:22:53;;;;;;;10.98;5.65;;;17.20;1.00;;;;;;5115424;28;20205;-68
2023/04/27 09:25:26;;;;;;;7.43;4.93;;;17.50;1.00;;;;;;5114727;28;20153;-68
2023/04/27 09:27:52;;;;;;;5.43;4.75;;;17.40;1.00;;;;;;5114426;28;20212;-68
2023/04/27 09:30:18;;;;;;;7.93;4.88;;;17.30;1.00;;;;;;5113056;28;20588;-68
2023/04/27 09:32:55;;;;;;;5.60;4.80;;;17.40;1.00;;;;;;5114705;28;20259;-68
2023/04/27 09:35:27;;;;;;;8.82;5.05;;;17.10;1.00;;;;;;5114750;28;20536;-68
2023/04/27 09:37:54;;;;;;;7.00;5.32;;;17.10;1.00;;;;;;5113037;28;20535;-68
2023/04/27 09:40:25;;;;;;;7.25;5.55;;;16.60;1.00;;;;;;5114477;28;20176;-68
2023/04/27 09:42:51;;;;;;;6.32;5.00;;;16.80;1.00;;;;;;5114639;28;20163;-68
2023/04/27 09:45:18;;;;;;;5.60;4.63;;;16.60;1.00;;;;;;5112774;28;20266;-69
2023/04/27 09:47:45;;;;;;;6.40;4.30;;;16.60;1.00;;;;;;5114069;28;20199;-68
2023/04/27 09:50:12;;;;;;;7.75;4.70;;;16.60;1.00;;;;;;5114186;28;20156;-68
2023/04/27 09:52:38;;;;;;;7.20;4.50;;;16.80;1.00;;;;;;5114148;28;20534;-68
2023/04/27 09:55:11;;;;;;;7.45;4.70;;;17.00;1.00;;;;;;5112808;28;20179;-68
2023/04/27 09:57:47;;;;;;;5.40;4.57;;;17.00;1.00;;;;;;5112714;28;20204;-68
2023/04/27 10:00:41;;;;;;;5.38;3.92;;;16.60;1.00;;;;;;5113780;27;20575;-68
2023/04/27 10:03:32;;;;;;;7.95;5.10;;;16.30;1.00;;;;;;5113979;28;20165;-68
2023/04/27 10:05:57;;;;;;;4.93;4.03;;;15.80;1.00;;;;;;5114336;28;20208;-68
2023/04/27 10:08:23;;;;;;;8.20;4.80;;;15.80;1.00;;;;;;5113223;28;20188;-74
2023/04/27 10:10:52;;;;;;;6.22;4.93;;;16.30;1.00;;;;;;5113064;28;20176;-74
2023/04/27 10:13:25;;;;;;;5.65;5.00;;;16.40;1.00;;;;;;5112884;28;20172;-75
2023/04/27 10:15:51;;;;;;;8.23;5.30;;;16.30;1.00;;;;;;5113094;28;20169;-72
2023/04/27 10:18:29;;;;;;;7.00;4.90;;;16.20;1.00;;;;;;5112922;28;20192;-73
2023/04/27 10:20:56;;;;;;;9.15;4.75;;;15.80;1.00;;;;;;5113801;28;20217;-73
2023/04/27 10:23:23;;;;;;;7.80;5.47;;;15.80;1.00;;;;;;5113964;28;20168;-73
2023/04/27 10:25:49;;;;;;;9.20;5.80;;;15.90;1.00;;;;;;5112588;28;20287;-73
2023/04/27 10:28:20;;;;;;;7.03;5.45;;;15.80;1.00;;;;;;5114364;28;20311;-74
2023/04/27 10:30:47;;;;;;;8.63;5.38;;;15.70;1.00;;;;;;5113939;28;20153;-74
2023/04/27 10:33:18;;;;;;;8.57;5.45;;;15.50;1.00;;;;;;5114085;28;20217;-73
2023/04/27 10:35:54;;;;;;;8.07;5.85;;;15.40;1.00;;;;;;5113940;28;20180;-74
2023/04/27 10:38:25;;;;;;;10.00;6.15;;;15.10;1.00;;;;;;5113869;28;20184;-74
2023/04/27 10:40:56;;;;;;;8.93;5.60;;;14.80;1.00;;;;;;5112576;28;20217;-73
2023/04/27 10:43:26;;;;;;;8.18;5.88;;;14.90;1.00;;;;;;5112541;28;20176;-73
2023/04/27 10:45:52;;;;;;;7.45;5.80;;;15.10;1.00;;;;;;5112547;28;20176;-72
2023/04/27 10:48:18;;;;;;;8.82;6.28;;;15.10;1.00;;;;;;5113612;28;20191;-73
2023/04/27 10:50:45;;;;;;;7.55;5.60;;;15.00;1.00;;;;;;5115252;28;20236;-73
2023/04/27 10:53:13;;;;;;;8.32;5.97;;;15.20;1.00;;;;;;5118289;28;20165;-73
2023/04/27 10:55:39;;;;;;;9.55;5.82;;;15.10;1.00;;;;;;5116383;28;20180;-73
2023/04/27 10:58:05;;;;;;;8.07;5.65;;;15.10;1.00;;;;;;5117557;28;20189;-72
2023/04/27 11:00:43;;;;;;;6.38;5.15;;;15.10;1.00;;;;;;5117387;28;20188;-72
2023/04/27 11:03:22;;;;;;;12.15;6.20;;;15.00;1.00;;;;;;5117786;28;20149;-72
2023/04/27 11:05:57;;;;;;;7.28;5.50;;;15.20;1.00;;;;;;5116103;28;20298;-72
2023/04/27 11:08:23;;;;;;;6.85;5.47;;;15.30;1.00;;;;;;5116215;28;20187;-71
2023/04/27 11:10:51;;;;;;;8.07;4.72;;;15.40;1.00;;;;;;5117473;28;20171;-72
2023/04/27 11:13:27;;;;;;;11.10;5.63;;;15.20;1.00;;;;;;5117082;28;20218;-72
2023/04/27 11:15:58;;;;;;;7.68;5.53;;;15.30;1.00;;;;;;5117821;28;20156;-72
2023/04/27 11:18:30;;;;;;;10.68;5.63;;;15.30;1.00;;;;;;5116028;28;20336;-71
2023/04/27 11:21:15;;;;;;;9.13;4.68;;;15.10;1.00;;;;;;5117600;28;20213;-71
2023/04/27 11:23:42;;;;;;;8.30;5.43;;;15.10;1.00;;;;;;5117239;28;20157;-71
2023/04/27 11:26:21;;;;;;;11.98;5.13;;;15.10;1.00;;;;;;5116837;28;20229;-71
2023/04/27 11:28:57;;;;;;;9.00;5.38;;;15.50;1.00;;;;;;5115599;28;20647;-71
2023/04/27 11:31:24;;;;;;;10.13;5.53;;;15.70;1.00;;;;;;5116005;28;20188;-71
2023/04/27 11:33:50;;;;;;;8.55;5.28;;;15.80;1.00;;;;;;5116942;28;20167;-72
2023/04/27 11:36:21;;;;;;;9.25;5.88;;;16.10;1.00;;;;;;5117079;28;20195;-72
2023/04/27 11:38:48;;;;;;;7.05;5.63;;;16.30;1.00;;;;;;5117121;27;20160;-71
2023/04/27 11:41:14;;;;;;;8.70;5.32;;;16.40;1.00;;;;;;5117030;28;20655;-71
2023/04/27 11:43:44;;;;;;;11.57;5.30;;;16.20;1.00;;;;;;5116530;28;20191;-71
2023/04/27 11:46:11;;;;;;;5.78;5.00;;;16.30;1.00;;;;;;5117162;28;20188;-72
2023/04/27 11:48:37;;;;;;;5.93;5.13;;;16.50;1.00;;;;;;5116638;28;20537;-71
2023/04/27 11:51:04;;;;;;;6.25;5.15;;;16.80;1.00;;;;;;5115302;28;20180;-72
2023/04/27 11:53:32;;;;;;;7.28;5.88;;;16.10;1.00;;;;;;5116553;28;20172;-72
2023/04/27 11:56:09;;;;;;;6.82;5.35;;;15.70;1.00;;;;;;5115181;28;20263;-72
2023/04/27 11:58:37;;;;;;;8.30;5.55;;;15.80;1.00;;;;;;5116297;28;20180;-71
2023/04/27 12:01:03;;;;;;;7.60;5.28;;;16.00;1.00;;;;;;5115858;28;20241;-72
2023/04/27 12:03:30;;;;;;;8.73;5.45;;;16.20;1.00;;;;;;5116425;28;20171;-71
2023/04/27 12:05:56;;;;;;;6.75;5.45;;;16.40;1.00;;;;;;5116572;28;20188;-72
2023/04/27 12:08:22;;;;;;;7.70;5.70;;;16.60;1.00;;;;;;5116331;28;20691;-72
2023/04/27 12:10:48;;;;;;;10.25;6.18;;;16.80;1.00;;;;;;5116484;28;20172;-72
2023/04/27 12:13:14;;;;;;;6.82;5.53;;;16.70;1.00;;;;;;5116782;28;20520;-72
2023/04/27 12:15:41;;;;;;;6.28;5.25;;;16.80;1.00;;;;;;5116142;28;20176;-72
2023/04/27 12:18:07;;;;;;;6.50;5.43;;;17.10;1.00;;;;;;5115981;28;20252;-72
2023/04/27 12:20:34;;;;;;;7.05;5.15;;;17.20;1.00;;;;;;5114924;28;20200;-72
2023/04/27 12:23:00;;;;;;;7.25;5.82;;;17.60;1.00;;;;;;5116007;28;20177;-72
2023/04/27 12:25:26;;;;;;;8.43;5.07;;;17.80;1.00;;;;;;5116053;28;20672;-72
2023/04/27 12:27:52;;;;;;;9.48;5.78;;;17.80;1.00;;;;;;5115730;28;20288;-72
2023/04/27 12:30:18;;;;;;;7.72;5.30;;;18.00;1.00;;;;;;5114831;28;20172;-72
2023/04/27 12:32:43;;;;;;;6.90;5.32;;;18.20;1.00;;;;;;5116148;28;20637;-72
2023/04/27 12:35:09;;;;;;;8.38;5.43;;;18.00;1.00;;;;;;5114834;28;20177;-72
2023/04/27 12:37:36;;;;;;;8.52;5.55;;;18.10;1.00;;;;;;5115854;28;20192;-72
2023/04/27 12:40:08;;;;;;;9.18;5.50;;;18.00;1.00;;;;;;5116199;28;20661;-71
2023/04/27 12:42:34;;;;;;;10.02;5.75;;;17.90;1.00;;;;;;5116021;28;20240;-72
2023/04/27 12:45:00;;;;;;;8.60;5.25;;;17.90;1.00;;;;;;5115580;28;20175;-71
2023/04/27 12:47:26;;;;;;;12.57;5.72;;;18.10;1.00;;;;;;5116099;28;20235;-71